Conway, MI (49722)

3:44 AM EDT on August 04, 2015 (GMT -0400)
Crooked Lake | | Change Station
CLOSE
Current Station
Personal Weather Station
Location: Petoskey, MI
Elevation: 584 ft
Nearby Weather Stations

Elev 584 ft 45.41 °N, 84.82 °W | Updated 9 minutes ago

Overcast
Overcast
58.1 °F
Feels Like 58.1 °F
N
0.0
Wind Variable Wind from ESE

Today
High -- | Low -- °F
--% Chance of Precip.
Yesterday
High -- | Low -- °F
Precip. -- in
6:26 AM 9:03 PM
Waning Gibbous, 80% visible
Pressure 29.82 in
Visibility 10.0 miles
Clouds Overcast 11000 ft
Dew Point 58 °F
Humidity 99%
Rainfall 0.00 in
Snow Depth Not available.
UV 0 out of 12
Pollen 5.40 out of 12
Air Quality Not available.
Flu Activity Not available.
METAR KMGN 040734Z AUTO 00000KT 10SM OVC110 16/14 A2982 RMK AO2 T01610144

More Conditions Fewer Conditions

Pressure 29.82 in
Visibility 10.0 miles
Clouds Overcast 11000 ft
Dew Point 58 °F
Humidity 99%
Rainfall 0.00 in
Snow Depth Not available.
UV 0 out of 12
Pollen 5.40 out of 12
Air Quality Not available.
Flu Activity Not available.
METAR KMGN 040734Z AUTO 00000KT 10SM OVC110 16/14 A2982 RMK AO2 T01610144

More Conditions Fewer Conditions

Nowcast | as of 2:00 am EDT on August 4, 2015

Mostly cloudy. Isolated showers. At 5 am...mostly cloudy. Scattered showers. Temperature 54. Light winds. Mostly cloudy. Scattered showers. Numerous showers.

×

10-Day Weather Forecast

×

Almanac

Astronomy

Aug. 04, 2015 Rise Set
Actual Time
Civil Twilight
Nautical Twilight
Astronomical Twilight
Moon
Length of Visible Light
Length of Day
Tomorrow will be .
, % of the Moon is Illuminated

Today's Extremes

State Highs State Lows

Community

WunderPhotos

Upload Photos

1,843,877 photos uploaded!

WunderBlogs® & News

Nearby

Air Quality

  Air Quality AQ Index Pollutant
Not available.

Snow Depth

Station Depth Elevation

Earthquake Activity

City Distance Mag. Time & Date
Minimum magnitude displayed is 2.5.

Coastal Water Temperatures

Place Temperature

Stations

Nearby Weather Stations

Station Location Temp. Windchill Dew Point Humidity Wind Precip. Elev Updated Type